sensor_id;sensor_type;location;lat;lon;timestamp;pressure;altitude;pressure_sealevel;temperature;humidity
27202;BME280;14717;46.924;15.474;2023-05-03T00:00:01;98307.91;;;12.19;100.00
27202;BME280;14717;46.924;15.474;2023-05-03T00:02:26;98319.03;;;12.14;100.00
27202;BME280;14717;46.924;15.474;2023-05-03T00:04:52;98311.53;;;12.15;100.00
27202;BME280;14717;46.924;15.474;2023-05-03T00:07:19;98303.50;;;12.13;100.00
27202;BME280;14717;46.924;15.474;2023-05-03T00:09:44;98315.94;;;12.16;100.00
27202;BME280;14717;46.924;15.474;2023-05-03T00:12:10;98315.13;;;12.15;100.00
27202;BME280;14717;46.924;15.474;2023-05-03T00:14:35;98308.75;;;12.15;100.00
27202;BME280;14717;46.924;15.474;2023-05-03T00:17:01;98301.84;;;12.12;100.00
27202;BME280;14717;46.924;15.474;2023-05-03T00:19:26;98299.69;;;12.09;100.00
27202;BME280;14717;46.924;15.474;2023-05-03T00:21:54;98304.97;;;12.06;100.00
27202;BME280;14717;46.924;15.474;2023-05-03T00:24:19;98300.25;;;12.06;100.00
27202;BME280;14717;46.924;15.474;2023-05-03T00:26:45;98299.19;;;12.02;100.00
27202;BME280;14717;46.924;15.474;2023-05-03T00:29:10;98303.03;;;12.06;100.00
27202;BME280;14717;46.924;15.474;2023-05-03T00:31:35;98296.34;;;12.07;100.00
27202;BME280;14717;46.924;15.474;2023-05-03T00:34:01;98290.00;;;12.07;100.00
27202;BME280;14717;46.924;15.474;2023-05-03T00:36:26;98292.78;;;12.07;100.00
27202;BME280;14717;46.924;15.474;2023-05-03T00:38:52;98301.09;;;12.07;100.00
27202;BME280;14717;46.924;15.474;2023-05-03T00:41:17;98298.31;;;12.07;100.00
27202;BME280;14717;46.924;15.474;2023-05-03T00:43:43;98300.78;;;12.08;100.00
27202;BME280;14717;46.924;15.474;2023-05-03T00:46:09;98299.97;;;12.08;100.00
27202;BME280;14717;46.924;15.474;2023-05-03T00:48:34;98303.56;;;12.08;100.00
27202;BME280;14717;46.924;15.474;2023-05-03T00:51:01;98302.13;;;12.11;100.00
27202;BME280;14717;46.924;15.474;2023-05-03T00:53:26;98298.84;;;12.09;100.00
27202;BME280;14717;46.924;15.474;2023-05-03T00:55:54;98300.50;;;12.10;100.00
27202;BME280;14717;46.924;15.474;2023-05-03T00:58:20;98304.09;;;12.10;100.00
27202;BME280;14717;46.924;15.474;2023-05-03T01:00:46;98303.91;;;12.02;100.00
27202;BME280;14717;46.924;15.474;2023-05-03T01:03:13;98301.66;;;12.04;100.00
27202;BME280;14717;46.924;15.474;2023-05-03T01:05:49;98301.09;;;12.07;100.00
27202;BME280;14717;46.924;15.474;2023-05-03T01:08:51;98291.91;;;12.11;100.00
27202;BME280;14717;46.924;15.474;2023-05-03T01:11:22;98289.00;;;11.98;100.00
27202;BME280;14717;46.924;15.474;2023-05-03T01:14:19;98296.97;;;12.04;100.00
27202;BME280;14717;46.924;15.474;2023-05-03T01:16:48;98295.53;;;12.07;100.00
27202;BME280;14717;46.924;15.474;2023-05-03T01:19:28;98294.22;;;11.99;100.00
27202;BME280;14717;46.924;15.474;2023-05-03T01:22:16;98302.22;;;12.01;100.00
27202;BME280;14717;46.924;15.474;2023-05-03T01:24:50;98292.59;;;11.98;100.00
27202;BME280;14717;46.924;15.474;2023-05-03T01:27:19;98295.06;;;12.00;100.00
27202;BME280;14717;46.924;15.474;2023-05-03T01:29:44;98295.59;;;12.02;100.00
27202;BME280;14717;46.924;15.474;2023-05-03T01:32:15;98296.13;;;12.04;100.00
27202;BME280;14717;46.924;15.474;2023-05-03T01:35:07;98292.78;;;12.07;100.00
27202;BME280;14717;46.924;15.474;2023-05-03T01:37:36;98293.34;;;12.04;100.00
27202;BME280;14717;46.924;15.474;2023-05-03T01:40:02;98291.09;;;12.06;100.00
27202;BME280;14717;46.924;15.474;2023-05-03T01:42:34;98291.53;;;11.89;100.00
27202;BME280;14717;46.924;15.474;2023-05-03T01:45:01;98286.81;;;11.95;100.00
27202;BME280;14717;46.924;15.474;2023-05-03T01:47:28;98283.47;;;11.98;100.00
27202;BME280;14717;46.924;15.474;2023-05-03T01:49:53;98289.53;;;12.00;100.00
27202;BME280;14717;46.924;15.474;2023-05-03T01:52:19;98284.28;;;11.98;100.00
27202;BME280;14717;46.924;15.474;2023-05-03T01:54:44;98281.22;;;12.00;100.00
27202;BME280;14717;46.924;15.474;2023-05-03T01:57:10;98276.22;;;12.02;100.00
27202;BME280;14717;46.924;15.474;2023-05-03T01:59:35;98275.69;;;12.00;100.00
27202;BME280;14717;46.924;15.474;2023-05-03T02:02:01;98281.50;;;11.98;100.00
27202;BME280;14717;46.924;15.474;2023-05-03T02:04:26;98288.69;;;11.99;100.00
27202;BME280;14717;46.924;15.474;2023-05-03T02:06:52;98282.31;;;11.99;100.00
27202;BME280;14717;46.924;15.474;2023-05-03T02:09:18;98282.31;;;11.99;100.00
27202;BME280;14717;46.924;15.474;2023-05-03T02:11:43;98278.22;;;11.96;100.00
27202;BME280;14717;46.924;15.474;2023-05-03T02:14:08;98283.75;;;11.96;100.00
27202;BME280;14717;46.924;15.474;2023-05-03T02:16:34;98274.31;;;11.97;100.00
27202;BME280;14717;46.924;15.474;2023-05-03T02:18:59;98274.31;;;11.97;100.00
27202;BME280;14717;46.924;15.474;2023-05-03T02:21:25;98275.44;;;11.96;100.00
27202;BME280;14717;46.924;15.474;2023-05-03T02:23:51;98271.53;;;11.97;100.00
27202;BME280;14717;46.924;15.474;2023-05-03T02:26:17;98271.25;;;11.99;100.00
27202;BME280;14717;46.924;15.474;2023-05-03T02:28:43;98275.16;;;11.98;100.00
27202;BME280;14717;46.924;15.474;2023-05-03T02:31:08;98270.44;;;11.98;100.00
27202;BME280;14717;46.924;15.474;2023-05-03T02:33:34;98274.59;;;11.96;100.00
27202;BME280;14717;46.924;15.474;2023-05-03T02:35:59;98275.19;;;11.93;100.00
27202;BME280;14717;46.924;15.474;2023-05-03T02:38:25;98271.88;;;11.91;100.00
27202;BME280;14717;46.924;15.474;2023-05-03T02:40:50;98273.00;;;11.90;100.00
27202;BME280;14717;46.924;15.474;2023-05-03T02:43:16;98271.59;;;11.92;100.00
27202;BME280;14717;46.924;15.474;2023-05-03T02:45:44;98275.44;;;11.96;100.00
27202;BME280;14717;46.924;15.474;2023-05-03T02:48:10;98264.69;;;11.90;100.00
27202;BME280;14717;46.924;15.474;2023-05-03T02:50:35;98262.28;;;11.84;100.00
27202;BME280;14717;46.924;15.474;2023-05-03T02:53:00;98265.72;;;11.71;100.00
27202;BME280;14717;46.924;15.474;2023-05-03T02:55:26;98264.59;;;11.72;100.00
27202;BME280;14717;46.924;15.474;2023-05-03T02:57:52;98265.91;;;11.79;100.00
27202;BME280;14717;46.924;15.474;2023-05-03T03:00:17;98263.66;;;11.81;100.00
27202;BME280;14717;46.924;15.474;2023-05-03T03:02:43;98267.00;;;11.83;100.00
27202;BME280;14717;46.924;15.474;2023-05-03T03:05:08;98266.47;;;11.76;100.00
27202;BME280;14717;46.924;15.474;2023-05-03T03:07:36;98268.44;;;11.76;100.00
27202;BME280;14717;46.924;15.474;2023-05-03T03:10:01;98264.31;;;11.73;100.00
27202;BME280;14717;46.924;15.474;2023-05-03T03:12:28;98267.03;;;11.78;100.00
27202;BME280;14717;46.924;15.474;2023-05-03T03:14:53;98274.72;;;11.81;100.00
27202;BME280;14717;46.924;15.474;2023-05-03T03:17:19;98273.44;;;11.74;100.00
27202;BME280;14717;46.924;15.474;2023-05-03T03:19:45;98272.09;;;11.66;100.00
27202;BME280;14717;46.924;15.474;2023-05-03T03:22:10;98270.50;;;11.60;100.00
27202;BME280;14717;46.924;15.474;2023-05-03T03:24:36;98275.75;;;11.62;100.00
27202;BME280;14717;46.924;15.474;2023-05-03T03:27:02;98273.22;;;11.65;100.00
27202;BME280;14717;46.924;15.474;2023-05-03T03:29:30;98269.28;;;11.71;100.00
27202;BME280;14717;46.924;15.474;2023-05-03T03:31:55;98281.22;;;11.72;100.00
27202;BME280;14717;46.924;15.474;2023-05-03T03:34:21;98281.88;;;11.59;100.00
27202;BME280;14717;46.924;15.474;2023-05-03T03:36:46;98279.09;;;11.59;100.00
27202;BME280;14717;46.924;15.474;2023-05-03T03:39:12;98279.94;;;11.54;100.00
27202;BME280;14717;46.924;15.474;2023-05-03T03:41:37;98276.63;;;11.57;100.00
27202;BME280;14717;46.924;15.474;2023-05-03T03:44:03;98272.19;;;11.56;100.00
27202;BME280;14717;46.924;15.474;2023-05-03T03:46:28;98277.50;;;11.48;100.00
27202;BME280;14717;46.924;15.474;2023-05-03T03:48:54;98271.13;;;11.52;100.00
27202;BME280;14717;46.924;15.474;2023-05-03T03:51:19;98268.63;;;11.51;100.00
27202;BME280;14717;46.924;15.474;2023-05-03T03:53:44;98278.56;;;11.57;100.00
27202;BME280;14717;46.924;15.474;2023-05-03T03:56:10;98277.63;;;11.66;100.00
27202;BME280;14717;46.924;15.474;2023-05-03T03:58:35;98280.97;;;11.68;100.00
27202;BME280;14717;46.924;15.474;2023-05-03T04:01:01;98289.78;;;11.70;100.00
27202;BME280;14717;46.924;15.474;2023-05-03T04:03:27;98282.06;;;11.67;100.00
27202;BME280;14717;46.924;15.474;2023-05-03T04:05:52;98285.91;;;11.71;100.00
27202;BME280;14717;46.924;15.474;2023-05-03T04:08:17;98291.50;;;11.61;100.00
27202;BME280;14717;46.924;15.474;2023-05-03T04:10:43;98295.91;;;11.67;100.00
27202;BME280;14717;46.924;15.474;2023-05-03T04:13:08;98293.19;;;11.62;100.00
27202;BME280;14717;46.924;15.474;2023-05-03T04:15:34;98297.00;;;11.66;100.00
27202;BME280;14717;46.924;15.474;2023-05-03T04:17:59;98294.19;;;11.71;100.00
27202;BME280;14717;46.924;15.474;2023-05-03T04:20:25;98291.47;;;11.66;100.00
27202;BME280;14717;46.924;15.474;2023-05-03T04:22:51;98306.16;;;11.67;100.00
27202;BME280;14717;46.924;15.474;2023-05-03T04:25:17;98305.78;;;11.78;100.00
27202;BME280;14717;46.924;15.474;2023-05-03T04:27:43;98314.59;;;11.85;100.00
27202;BME280;14717;46.924;15.474;2023-05-03T04:30:09;98303.19;;;11.91;100.00
27202;BME280;14717;46.924;15.474;2023-05-03T04:32:36;98307.88;;;11.91;100.00
27202;BME280;14717;46.924;15.474;2023-05-03T04:35:06;98315.56;;;11.99;100.00
27202;BME280;14717;46.924;15.474;2023-05-03T04:37:37;98308.97;;;11.95;100.00
27202;BME280;14717;46.924;15.474;2023-05-03T04:40:04;98311.38;;;12.01;100.00
27202;BME280;14717;46.924;15.474;2023-05-03T04:42:34;98312.69;;;12.09;100.00
27202;BME280;14717;46.924;15.474;2023-05-03T04:45:00;98318.50;;;12.07;100.00
27202;BME280;14717;46.924;15.474;2023-05-03T04:47:31;98318.75;;;12.11;100.00
27202;BME280;14717;46.924;15.474;2023-05-03T04:49:56;98317.34;;;12.13;100.00
27202;BME280;14717;46.924;15.474;2023-05-03T04:52:22;98319.28;;;12.18;100.00
27202;BME280;14717;46.924;15.474;2023-05-03T04:54:47;98328.59;;;12.27;100.00
27202;BME280;14717;46.924;15.474;2023-05-03T04:57:12;98318.56;;;12.31;100.00
27202;BME280;14717;46.924;15.474;2023-05-03T04:59:38;98334.59;;;12.33;100.00
27202;BME280;14717;46.924;15.474;2023-05-03T05:02:03;98324.09;;;12.31;100.00
27202;BME280;14717;46.924;15.474;2023-05-03T05:04:29;98324.41;;;12.29;100.00
27202;BME280;14717;46.924;15.474;2023-05-03T05:06:54;98331.78;;;12.38;99.73
27202;BME280;14717;46.924;15.474;2023-05-03T05:09:25;98332.25;;;12.45;99.10
27202;BME280;14717;46.924;15.474;2023-05-03T05:11:51;98324.22;;;12.49;99.87
27202;BME280;14717;46.924;15.474;2023-05-03T05:14:17;98328.59;;;12.50;100.00
27202;BME280;14717;46.924;15.474;2023-05-03T05:16:42;98334.69;;;12.52;100.00
27202;BME280;14717;46.924;15.474;2023-05-03T05:19:08;98343.22;;;12.55;100.00
27202;BME280;14717;46.924;15.474;2023-05-03T05:21:33;98334.31;;;12.58;100.00
27202;BME280;14717;46.924;15.474;2023-05-03T05:23:59;98331.56;;;12.58;100.00
27202;BME280;14717;46.924;15.474;2023-05-03T05:26:25;98341.47;;;12.64;100.00
27202;BME280;14717;46.924;15.474;2023-05-03T05:28:51;98336.94;;;12.73;100.00
27202;BME280;14717;46.924;15.474;2023-05-03T05:31:17;98337.44;;;12.80;100.00
27202;BME280;14717;46.924;15.474;2023-05-03T05:33:43;98339.03;;;12.86;100.00
27202;BME280;14717;46.924;15.474;2023-05-03T05:36:08;98341.03;;;12.80;97.90
27202;BME280;14717;46.924;15.474;2023-05-03T05:38:34;98340.47;;;12.83;100.00
27202;BME280;14717;46.924;15.474;2023-05-03T05:40:59;98343.19;;;12.88;100.00
27202;BME280;14717;46.924;15.474;2023-05-03T05:43:24;98341.16;;;12.94;99.74
27202;BME280;14717;46.924;15.474;2023-05-03T05:45:50;98356.63;;;13.00;100.00
27202;BME280;14717;46.924;15.474;2023-05-03T05:48:15;98348.47;;;13.08;100.00
27202;BME280;14717;46.924;15.474;2023-05-03T05:50:41;98350.69;;;13.06;100.00
27202;BME280;14717;46.924;15.474;2023-05-03T05:53:06;98357.69;;;13.04;100.00
27202;BME280;14717;46.924;15.474;2023-05-03T05:55:33;98354.84;;;13.09;100.00
27202;BME280;14717;46.924;15.474;2023-05-03T05:57:58;98347.56;;;13.13;100.00
27202;BME280;14717;46.924;15.474;2023-05-03T06:00:24;98354.78;;;13.14;100.00
27202;BME280;14717;46.924;15.474;2023-05-03T06:02:50;98347.03;;;13.11;99.54
27202;BME280;14717;46.924;15.474;2023-05-03T06:05:15;98356.97;;;13.17;99.79
27202;BME280;14717;46.924;15.474;2023-05-03T06:07:41;98353.53;;;13.24;100.00
27202;BME280;14717;46.924;15.474;2023-05-03T06:10:07;98352.44;;;13.20;100.00
27202;BME280;14717;46.924;15.474;2023-05-03T06:12:32;98359.22;;;13.15;99.69
27202;BME280;14717;46.924;15.474;2023-05-03T06:14:58;98368.50;;;13.23;100.00
27202;BME280;14717;46.924;15.474;2023-05-03T06:17:23;98368.81;;;13.22;99.54
27202;BME280;14717;46.924;15.474;2023-05-03T06:19:50;98377.59;;;13.29;100.00
27202;BME280;14717;46.924;15.474;2023-05-03T06:22:18;98368.84;;;13.40;100.00
27202;BME280;14717;46.924;15.474;2023-05-03T06:24:43;98369.91;;;13.44;100.00
27202;BME280;14717;46.924;15.474;2023-05-03T06:27:09;98367.56;;;13.51;99.24
27202;BME280;14717;46.924;15.474;2023-05-03T06:29:34;98371.69;;;13.54;98.23
27202;BME280;14717;46.924;15.474;2023-05-03T06:31:59;98377.25;;;13.72;100.00
27202;BME280;14717;46.924;15.474;2023-05-03T06:34:25;98379.13;;;13.76;98.44
27202;BME280;14717;46.924;15.474;2023-05-03T06:36:51;98372.03;;;13.70;98.22
27202;BME280;14717;46.924;15.474;2023-05-03T06:39:16;98373.13;;;13.69;98.27
27202;BME280;14717;46.924;15.474;2023-05-03T06:41:42;98374.00;;;13.83;98.05
27202;BME280;14717;46.924;15.474;2023-05-03T06:44:08;98375.53;;;13.94;98.46
27202;BME280;14717;46.924;15.474;2023-05-03T06:46:33;98379.19;;;13.90;95.68
27202;BME280;14717;46.924;15.474;2023-05-03T06:48:59;98384.75;;;13.90;96.03
27202;BME280;14717;46.924;15.474;2023-05-03T06:51:25;98382.81;;;13.90;94.52
27202;BME280;14717;46.924;15.474;2023-05-03T06:53:55;98389.72;;;14.11;94.67
27202;BME280;14717;46.924;15.474;2023-05-03T06:56:21;98387.06;;;14.19;93.19
27202;BME280;14717;46.924;15.474;2023-05-03T06:58:47;98388.22;;;14.18;91.91
27202;BME280;14717;46.924;15.474;2023-05-03T07:01:13;98384.94;;;14.16;92.35
27202;BME280;14717;46.924;15.474;2023-05-03T07:03:38;98387.63;;;14.21;92.23
27202;BME280;14717;46.924;15.474;2023-05-03T07:06:04;98391.78;;;14.37;92.61
27202;BME280;14717;46.924;15.474;2023-05-03T07:08:29;98392.13;;;14.49;92.86
27202;BME280;14717;46.924;15.474;2023-05-03T07:10:55;98392.03;;;14.54;90.03
27202;BME280;14717;46.924;15.474;2023-05-03T07:13:21;98385.94;;;14.52;90.50
27202;BME280;14717;46.924;15.474;2023-05-03T07:15:46;98383.84;;;14.62;90.93
27202;BME280;14717;46.924;15.474;2023-05-03T07:18:12;98389.06;;;14.64;88.64
27202;BME280;14717;46.924;15.474;2023-05-03T07:20:37;98379.72;;;14.87;88.31
27202;BME280;14717;46.924;15.474;2023-05-03T07:23:03;98383.28;;;14.92;87.20
27202;BME280;14717;46.924;15.474;2023-05-03T07:25:28;98387.97;;;14.91;90.35
27202;BME280;14717;46.924;15.474;2023-05-03T07:27:54;98376.84;;;14.91;87.53
27202;BME280;14717;46.924;15.474;2023-05-03T07:30:20;98376.38;;;15.16;87.27
27202;BME280;14717;46.924;15.474;2023-05-03T07:32:46;98379.34;;;15.06;85.64
27202;BME280;14717;46.924;15.474;2023-05-03T07:35:12;98374.63;;;15.33;86.82
27202;BME280;14717;46.924;15.474;2023-05-03T07:37:37;98385.88;;;15.42;86.59
27202;BME280;14717;46.924;15.474;2023-05-03T07:40:05;98377.50;;;15.42;86.61
27202;BME280;14717;46.924;15.474;2023-05-03T07:42:31;98384.59;;;15.61;87.52
27202;BME280;14717;46.924;15.474;2023-05-03T07:44:56;98378.88;;;15.79;83.48
27202;BME280;14717;46.924;15.474;2023-05-03T07:47:22;98387.16;;;16.06;83.40
27202;BME280;14717;46.924;15.474;2023-05-03T07:49:47;98378.78;;;16.06;84.90
27202;BME280;14717;46.924;15.474;2023-05-03T07:52:15;98374.03;;;16.42;82.50
27202;BME280;14717;46.924;15.474;2023-05-03T07:54:40;98374.88;;;16.72;80.28
27202;BME280;14717;46.924;15.474;2023-05-03T07:57:07;98379.59;;;16.63;76.90
27202;BME280;14717;46.924;15.474;2023-05-03T07:59:32;98369.72;;;16.88;76.67
27202;BME280;14717;46.924;15.474;2023-05-03T08:01:58;98376.72;;;16.77;78.64
27202;BME280;14717;46.924;15.474;2023-05-03T08:04:23;98383.38;;;16.89;79.40
27202;BME280;14717;46.924;15.474;2023-05-03T08:06:48;98379.38;;;16.82;76.67
27202;BME280;14717;46.924;15.474;2023-05-03T08:09:14;98388.16;;;16.97;76.56
27202;BME280;14717;46.924;15.474;2023-05-03T08:11:40;98382.41;;;17.02;75.22
27202;BME280;14717;46.924;15.474;2023-05-03T08:14:05;98378.94;;;17.27;74.48
27202;BME280;14717;46.924;15.474;2023-05-03T08:16:31;98383.91;;;17.30;66.01
27202;BME280;14717;46.924;15.474;2023-05-03T08:18:56;98386.88;;;17.42;66.33
27202;BME280;14717;46.924;15.474;2023-05-03T08:21:21;98389.81;;;17.37;66.01
27202;BME280;14717;46.924;15.474;2023-05-03T08:23:48;98386.06;;;17.41;66.18
27202;BME280;14717;46.924;15.474;2023-05-03T08:26:15;98386.59;;;17.51;65.87
27202;BME280;14717;46.924;15.474;2023-05-03T08:28:40;98383.78;;;17.51;63.51
27202;BME280;14717;46.924;15.474;2023-05-03T08:31:06;98391.78;;;17.28;63.80
27202;BME280;14717;46.924;15.474;2023-05-03T08:33:31;98376.91;;;17.49;68.04
27202;BME280;14717;46.924;15.474;2023-05-03T08:35:57;98379.56;;;17.71;63.71
27202;BME280;14717;46.924;15.474;2023-05-03T08:38:23;98388.28;;;17.69;64.67
27202;BME280;14717;46.924;15.474;2023-05-03T08:40:50;98379.59;;;17.79;62.99
27202;BME280;14717;46.924;15.474;2023-05-03T08:43:19;98385.81;;;17.68;66.80
27202;BME280;14717;46.924;15.474;2023-05-03T08:45:44;98393.19;;;17.55;61.43
27202;BME280;14717;46.924;15.474;2023-05-03T08:48:10;98388.56;;;18.15;60.38
27202;BME280;14717;46.924;15.474;2023-05-03T08:50:37;98387.75;;;18.23;58.45
27202;BME280;14717;46.924;15.474;2023-05-03T08:53:09;98382.44;;;17.96;63.89
27202;BME280;14717;46.924;15.474;2023-05-03T08:55:36;98393.47;;;18.09;62.01
27202;BME280;14717;46.924;15.474;2023-05-03T08:58:08;98385.88;;;18.01;62.59
27202;BME280;14717;46.924;15.474;2023-05-03T09:00:37;98390.53;;;18.14;61.85
27202;BME280;14717;46.924;15.474;2023-05-03T09:03:03;98384.84;;;18.98;62.93
27202;BME280;14717;46.924;15.474;2023-05-03T09:05:35;98386.25;;;18.59;58.24
27202;BME280;14717;46.924;15.474;2023-05-03T09:08:05;98390.88;;;18.30;59.49
27202;BME280;14717;46.924;15.474;2023-05-03T09:10:33;98388.88;;;18.13;59.47
27202;BME280;14717;46.924;15.474;2023-05-03T09:13:01;98396.91;;;17.98;57.49
27202;BME280;14717;46.924;15.474;2023-05-03T09:15:30;98392.28;;;18.02;58.70
27202;BME280;14717;46.924;15.474;2023-05-03T09:18:16;98388.38;;;18.45;58.88
27202;BME280;14717;46.924;15.474;2023-05-03T09:20:43;98390.97;;;18.83;60.11
27202;BME280;14717;46.924;15.474;2023-05-03T09:23:22;98394.31;;;18.35;53.83
27202;BME280;14717;46.924;15.474;2023-05-03T09:25:56;98395.97;;;18.11;57.08
27202;BME280;14717;46.924;15.474;2023-05-03T09:28:22;98385.19;;;17.79;54.74
27202;BME280;14717;46.924;15.474;2023-05-03T09:30:48;98390.94;;;17.74;56.56
27202;BME280;14717;46.924;15.474;2023-05-03T09:33:14;98393.66;;;17.49;55.34
27202;BME280;14717;46.924;15.474;2023-05-03T09:36:01;98384.66;;;17.52;57.98
27202;BME280;14717;46.924;15.474;2023-05-03T09:38:32;98387.91;;;17.46;57.96
27202;BME280;14717;46.924;15.474;2023-05-03T09:40:59;98392.03;;;17.18;54.60
27202;BME280;14717;46.924;15.474;2023-05-03T09:43:25;98389.78;;;17.20;57.14
27202;BME280;14717;46.924;15.474;2023-05-03T09:45:51;98395.34;;;17.20;57.48
27202;BME280;14717;46.924;15.474;2023-05-03T09:48:17;98388.25;;;17.14;55.99
27202;BME280;14717;46.924;15.474;2023-05-03T09:50:47;98390.97;;;17.27;57.12
27202;BME280;14717;46.924;15.474;2023-05-03T09:53:14;98382.31;;;17.46;58.44
27202;BME280;14717;46.924;15.474;2023-05-03T09:55:42;98385.94;;;17.54;56.06
27202;BME280;14717;46.924;15.474;2023-05-03T09:58:08;98383.94;;;17.47;58.01
27202;BME280;14717;46.924;15.474;2023-05-03T10:00:38;98396.31;;;17.54;58.06
27202;BME280;14717;46.924;15.474;2023-05-03T10:03:06;98387.16;;;17.79;58.84
27202;BME280;14717;46.924;15.474;2023-05-03T10:05:38;98400.47;;;17.73;62.85
27202;BME280;14717;46.924;15.474;2023-05-03T10:08:05;98399.84;;;17.76;62.77
27202;BME280;14717;46.924;15.474;2023-05-03T10:10:31;98394.88;;;17.73;62.84
27202;BME280;14717;46.924;15.474;2023-05-03T10:13:00;98393.22;;;17.72;66.90
27202;BME280;14717;46.924;15.474;2023-05-03T10:15:28;98390.41;;;17.55;67.99
27202;BME280;14717;46.924;15.474;2023-05-03T10:17:56;98388.75;;;17.54;69.10
27202;BME280;14717;46.924;15.474;2023-05-03T10:20:55;98389.34;;;17.43;69.89
27202;BME280;14717;46.924;15.474;2023-05-03T10:23:23;98398.06;;;17.42;69.25
27202;BME280;14717;46.924;15.474;2023-05-03T10:28:38;98385.84;;;17.21;68.15
27202;BME280;14717;46.924;15.474;2023-05-03T10:31:04;98391.44;;;17.21;68.52
27202;BME280;14717;46.924;15.474;2023-05-03T10:33:31;98392.69;;;17.15;69.17
27202;BME280;14717;46.924;15.474;2023-05-03T10:35:58;98391.22;;;17.17;68.36
27202;BME280;14717;46.924;15.474;2023-05-03T10:38:26;98389.78;;;17.20;68.44
27202;BME280;14717;46.924;15.474;2023-05-03T10:40:53;98400.16;;;17.28;67.59
27202;BME280;14717;46.924;15.474;2023-05-03T10:48:23;98395.84;;;17.22;67.60
27202;BME280;14717;46.924;15.474;2023-05-03T10:50:49;98399.03;;;17.29;67.14
27202;BME280;14717;46.924;15.474;2023-05-03T10:53:39;98399.38;;;17.36;66.32
27202;BME280;14717;46.924;15.474;2023-05-03T10:56:10;98400.00;;;17.33;64.50
27202;BME280;14717;46.924;15.474;2023-05-03T10:58:46;98393.47;;;17.37;65.64
27202;BME280;14717;46.924;15.474;2023-05-03T11:01:17;98393.47;;;17.37;64.92
27202;BME280;14717;46.924;15.474;2023-05-03T11:04:03;98399.72;;;17.43;65.15
27202;BME280;14717;46.924;15.474;2023-05-03T11:06:36;98399.56;;;17.48;65.04
27202;BME280;14717;46.924;15.474;2023-05-03T11:09:04;98396.94;;;17.43;64.05
27202;BME280;14717;46.924;15.474;2023-05-03T11:11:31;98398.28;;;17.53;63.64
27202;BME280;14717;46.924;15.474;2023-05-03T11:13:57;98398.63;;;17.60;62.90
27202;BME280;14717;46.924;15.474;2023-05-03T11:16:22;98404.06;;;17.65;63.19
27202;BME280;14717;46.924;15.474;2023-05-03T11:18:49;98396.22;;;17.84;62.83
27202;BME280;14717;46.924;15.474;2023-05-03T11:21:15;98395.28;;;18.14;63.44
27202;BME280;14717;46.924;15.474;2023-05-03T11:23:43;98400.41;;;18.12;61.79
27202;BME280;14717;46.924;15.474;2023-05-03T11:26:09;98395.31;;;18.47;60.25
27202;BME280;14717;46.924;15.474;2023-05-03T11:28:39;98401.84;;;18.68;60.15
27202;BME280;14717;46.924;15.474;2023-05-03T11:31:05;98400.53;;;18.74;60.79
27202;BME280;14717;46.924;15.474;2023-05-03T11:33:32;98398.72;;;18.70;58.14
27202;BME280;14717;46.924;15.474;2023-05-03T11:36:03;98402.00;;;18.88;57.92
27202;BME280;14717;46.924;15.474;2023-05-03T11:38:30;98392.13;;;18.82;55.99
27202;BME280;14717;46.924;15.474;2023-05-03T11:40:57;98394.94;;;18.74;56.14
27202;BME280;14717;46.924;15.474;2023-05-03T11:43:22;98398.25;;;18.59;56.02
27202;BME280;14717;46.924;15.474;2023-05-03T11:45:50;98406.66;;;18.42;56.57
27202;BME280;14717;46.924;15.474;2023-05-03T11:48:17;98398.59;;;18.49;56.05
27202;BME280;14717;46.924;15.474;2023-05-03T11:50:53;98396.44;;;18.55;55.51
27202;BME280;14717;46.924;15.474;2023-05-03T11:53:22;98394.78;;;18.62;55.54
27202;BME280;14717;46.924;15.474;2023-05-03T11:55:51;98396.44;;;18.72;55.65
27202;BME280;14717;46.924;15.474;2023-05-03T11:58:23;98393.78;;;18.83;55.30
27202;BME280;14717;46.924;15.474;2023-05-03T12:00:55;98395.75;;;18.66;54.90
27202;BME280;14717;46.924;15.474;2023-05-03T12:03:24;98392.66;;;18.59;55.24
27202;BME280;14717;46.924;15.474;2023-05-03T12:05:51;98399.41;;;18.50;55.05
27202;BME280;14717;46.924;15.474;2023-05-03T12:08:19;98406.34;;;18.44;54.91
27202;BME280;14717;46.924;15.474;2023-05-03T12:10:49;98392.66;;;18.17;55.21
27202;BME280;14717;46.924;15.474;2023-05-03T12:13:32;98396.13;;;18.39;54.99
27202;BME280;14717;46.924;15.474;2023-05-03T12:16:00;98391.19;;;18.62;56.16
27202;BME280;14717;46.924;15.474;2023-05-03T12:18:26;98390.31;;;18.78;56.99
27202;BME280;14717;46.924;15.474;2023-05-03T12:20:56;98391.59;;;18.89;55.64
27202;BME280;14717;46.924;15.474;2023-05-03T12:23:23;98384.34;;;18.88;56.25
27202;BME280;14717;46.924;15.474;2023-05-03T12:25:49;98388.63;;;18.94;54.17
27202;BME280;14717;46.924;15.474;2023-05-03T12:28:17;98392.56;;;18.93;53.67
27202;BME280;14717;46.924;15.474;2023-05-03T12:30:43;98388.59;;;19.11;54.49
27202;BME280;14717;46.924;15.474;2023-05-03T12:33:09;98379.66;;;19.25;52.87
27202;BME280;14717;46.924;15.474;2023-05-03T12:35:34;98386.75;;;19.23;52.00
27202;BME280;14717;46.924;15.474;2023-05-03T12:38:00;98382.34;;;19.14;50.99
27202;BME280;14717;46.924;15.474;2023-05-03T12:40:28;98382.34;;;19.14;53.06
27202;BME280;14717;46.924;15.474;2023-05-03T12:42:53;98380.72;;;19.13;52.25
27202;BME280;14717;46.924;15.474;2023-05-03T12:45:20;98376.13;;;19.00;53.26
27202;BME280;14717;46.924;15.474;2023-05-03T12:47:45;98370.78;;;18.44;53.75
27202;BME280;14717;46.924;15.474;2023-05-03T12:50:11;98379.66;;;18.46;55.67
27202;BME280;14717;46.924;15.474;2023-05-03T12:52:36;98379.81;;;18.41;56.81